Aeroporto :
LOGIN :

Iscrizione | Disclaimer

   EN    FR    IT 

 










Sommario :    VFR   VFR Marginale   IFR   IFR Intensivo   IFR Molto Intensivo
Visibilità : 
Base nubi : 
>= 8 km
>= 3000ft
5 / 8 km
1000 / 3000 ft
1500m / 5 km
500 / 1000 ft
800 / 1500m
200 / 500 ft
< 800m
< 200 ft
Simboli :   Temporali  Nebbia  Neve Forte  Precipitazioni Forti  Vento > 20 kt
SIGMETs :   Varie  Temporali  Ghiacco  Turbolenza  Onda orograficha  Ceneri Vulcaniche






- Altitudine del aeroporto : 1036 ft
- Codice IATA : ERF


EDDE - Erfurt

ULTIMO METAR :
  • 172250Z 19008KT 9999 -RA NSC 13/11 Q1012

METARs OBSOLETI :
  • 172220Z 17008KT 9999 -RA FEW040 13/12 Q1012
  • 172150Z 19005KT 9999 -RA FEW040 13/11 Q1012
  • 172120Z 21005KT 9999 -RA BKN040 13/11 Q1013
  • 172050Z 21005KT 9999 -RA FEW030 SCT043 13/11 Q1013
  • 172020Z 18005KT 9999 -RA SCT030 SCT040 13/11 Q1013

TAF TAF EDDE
Valido dal 17 a 18 ore il 18 a 18 ore UTC


171700Z 1718/1818 20008KT 9999 BKN025
BECMG 1809/1812 21015G25KT
BECMG 1814/1817 21010KT



MetMap, La meteo Aeronautica in un colpo d'occhio ! - Copyright ORBIFLY Dicembre 2007 - Disclaimer

ORBIFLY MET'MAP TEAM :

Programmazione e sviluppo : Alexandra Zaïnal
Concezione e sviluppo : Baudouin d'Aumeries
Co-Programmazione e sviluppo : Marc-Olivier Méhu
Supporto tecnico e logistico : Manuel Goepfert
Aiuto per la traduzione : Arnaldo La Scala

Contatto : metmap@orbifly.com




FONTI E CREDITI :

   NOAA